sensor_id;sensor_type;location;lat;lon;timestamp;pressure;altitude;pressure_sealevel;temperature;humidity
34983;BME280;21187;50.976;13.720;2023-03-22T00:01:54;98000.88;;;13.49;56.74
34983;BME280;21187;50.976;13.720;2023-03-22T00:06:55;97997.78;;;13.51;56.71
34983;BME280;21187;50.976;13.720;2023-03-22T00:11:57;97989.19;;;13.48;56.64
34983;BME280;21187;50.976;13.720;2023-03-22T00:16:59;97987.59;;;13.44;56.93
34983;BME280;21187;50.976;13.720;2023-03-22T00:22:01;97988.63;;;13.32;57.00
34983;BME280;21187;50.976;13.720;2023-03-22T00:27:04;97993.63;;;13.30;57.19
34983;BME280;21187;50.976;13.720;2023-03-22T00:32:06;97978.88;;;13.31;57.05
34983;BME280;21187;50.976;13.720;2023-03-22T00:37:08;97974.91;;;13.21;57.54
34983;BME280;21187;50.976;13.720;2023-03-22T00:42:10;97964.78;;;13.22;57.56
34983;BME280;21187;50.976;13.720;2023-03-22T00:47:13;97956.91;;;13.09;57.69
34983;BME280;21187;50.976;13.720;2023-03-22T00:52:15;97945.94;;;13.02;58.13
34983;BME280;21187;50.976;13.720;2023-03-22T00:57:17;97945.94;;;13.02;57.89
34983;BME280;21187;50.976;13.720;2023-03-22T01:02:19;97949.47;;;13.03;57.98
34983;BME280;21187;50.976;13.720;2023-03-22T01:07:21;97952.53;;;13.01;57.85
34983;BME280;21187;50.976;13.720;2023-03-22T01:12:24;97948.97;;;12.97;57.83
34983;BME280;21187;50.976;13.720;2023-03-22T01:17:26;97943.53;;;12.97;57.96
34983;BME280;21187;50.976;13.720;2023-03-22T01:22:28;97932.59;;;12.90;58.05
34983;BME280;21187;50.976;13.720;2023-03-22T01:27:30;97945.06;;;12.91;57.87
34983;BME280;21187;50.976;13.720;2023-03-22T01:32:32;97940.34;;;12.88;57.86
34983;BME280;21187;50.976;13.720;2023-03-22T01:37:34;97923.63;;;12.86;57.42
34983;BME280;21187;50.976;13.720;2023-03-22T01:42:36;97913.91;;;12.85;57.26
34983;BME280;21187;50.976;13.720;2023-03-22T01:47:54;97910.69;;;12.75;57.33
34983;BME280;21187;50.976;13.720;2023-03-22T01:52:58;97909.28;;;12.55;57.22
34983;BME280;21187;50.976;13.720;2023-03-22T01:58:06;97905.66;;;12.43;57.06
34983;BME280;21187;50.976;13.720;2023-03-22T02:03:31;97891.25;;;12.39;56.88
34983;BME280;21187;50.976;13.720;2023-03-22T02:08:36;97897.84;;;12.38;56.76
34983;BME280;21187;50.976;13.720;2023-03-22T02:14:01;97887.28;;;12.33;56.58
34983;BME280;21187;50.976;13.720;2023-03-22T02:51:11;97898.44;;;11.97;55.65
34983;BME280;21187;50.976;13.720;2023-03-22T02:56:35;97890.69;;;11.99;55.25
34983;BME280;21187;50.976;13.720;2023-03-22T03:01:46;97888.59;;;11.89;55.20
34983;BME280;21187;50.976;13.720;2023-03-22T03:06:52;97879.56;;;11.81;55.21
34983;BME280;21187;50.976;13.720;2023-03-22T03:11:56;97885.91;;;11.66;55.17
34983;BME280;21187;50.976;13.720;2023-03-22T03:17:05;97892.69;;;11.53;55.39
34983;BME280;21187;50.976;13.720;2023-03-22T03:22:29;97887.19;;;11.49;54.89
34983;BME280;21187;50.976;13.720;2023-03-22T03:27:39;97890.88;;;11.37;55.28
34983;BME280;21187;50.976;13.720;2023-03-22T03:32:50;97899.31;;;11.32;54.88
34983;BME280;21187;50.976;13.720;2023-03-22T03:38:08;97886.84;;;11.27;54.87
34983;BME280;21187;50.976;13.720;2023-03-22T03:43:11;97892.34;;;11.31;54.84
34983;BME280;21187;50.976;13.720;2023-03-22T03:48:18;97883.88;;;11.36;54.42
34983;BME280;21187;50.976;13.720;2023-03-22T03:53:22;97893.94;;;11.36;54.41
34983;BME280;21187;50.976;13.720;2023-03-22T03:58:24;97901.78;;;11.41;54.15
34983;BME280;21187;50.976;13.720;2023-03-22T04:03:26;97889.38;;;11.40;54.15
34983;BME280;21187;50.976;13.720;2023-03-22T04:08:54;97890.16;;;11.40;54.14
34983;BME280;21187;50.976;13.720;2023-03-22T04:14:01;97893.28;;;11.42;54.00
34983;BME280;21187;50.976;13.720;2023-03-22T04:19:03;97894.72;;;11.36;53.95
34983;BME280;21187;50.976;13.720;2023-03-22T04:24:05;97883.47;;;11.34;53.96
34983;BME280;21187;50.976;13.720;2023-03-22T04:29:12;97869.19;;;11.37;53.89
34983;BME280;21187;50.976;13.720;2023-03-22T04:34:18;97874.59;;;11.37;53.99
34983;BME280;21187;50.976;13.720;2023-03-22T04:39:27;97883.03;;;11.32;53.92
34983;BME280;21187;50.976;13.720;2023-03-22T04:44:47;97884.34;;;11.19;54.10
34983;BME280;21187;50.976;13.720;2023-03-22T04:49:49;97874.19;;;11.12;54.31
34983;BME280;21187;50.976;13.720;2023-03-22T04:54:52;97872.69;;;11.14;54.13
34983;BME280;21187;50.976;13.720;2023-03-22T04:59:54;97871.00;;;11.06;54.59
34983;BME280;21187;50.976;13.720;2023-03-22T05:04:56;97873.19;;;11.01;54.50
34983;BME280;21187;50.976;13.720;2023-03-22T05:10:09;97874.72;;;10.98;54.35
34983;BME280;21187;50.976;13.720;2023-03-22T05:15:11;97864.16;;;10.93;54.29
34983;BME280;21187;50.976;13.720;2023-03-22T05:20:13;97867.00;;;11.00;54.31
34983;BME280;21187;50.976;13.720;2023-03-22T05:25:20;97863.91;;;11.02;54.69
34983;BME280;21187;50.976;13.720;2023-03-22T05:30:22;97855.88;;;11.05;54.67
34983;BME280;21187;50.976;13.720;2023-03-22T05:35:40;97862.56;;;11.11;54.63
34983;BME280;21187;50.976;13.720;2023-03-22T05:40:44;97865.63;;;11.10;54.70
34983;BME280;21187;50.976;13.720;2023-03-22T05:45:46;97871.84;;;11.10;54.56
34983;BME280;21187;50.976;13.720;2023-03-22T05:51:08;97868.09;;;11.19;55.04
34983;BME280;21187;50.976;13.720;2023-03-22T05:56:12;97868.03;;;11.38;54.99
34983;BME280;21187;50.976;13.720;2023-03-22T06:01:16;97867.53;;;11.56;54.65
34983;BME280;21187;50.976;13.720;2023-03-22T06:06:21;97867.88;;;11.77;54.50
34983;BME280;21187;50.976;13.720;2023-03-22T06:11:33;97879.97;;;11.83;54.28
34983;BME280;21187;50.976;13.720;2023-03-22T06:16:38;97880.84;;;11.88;54.41
34983;BME280;21187;50.976;13.720;2023-03-22T06:21:40;97868.59;;;11.97;54.64
34983;BME280;21187;50.976;13.720;2023-03-22T06:26:45;97859.44;;;12.09;54.42
34983;BME280;21187;50.976;13.720;2023-03-22T06:31:47;97854.19;;;12.24;54.32
34983;BME280;21187;50.976;13.720;2023-03-22T06:36:49;97861.38;;;12.39;54.03
34983;BME280;21187;50.976;13.720;2023-03-22T06:42:17;97858.31;;;12.44;54.01
34983;BME280;21187;50.976;13.720;2023-03-22T06:47:24;97859.25;;;12.56;53.92
34983;BME280;21187;50.976;13.720;2023-03-22T06:52:42;97861.69;;;12.68;53.74
34983;BME280;21187;50.976;13.720;2023-03-22T06:57:44;97863.34;;;12.76;53.77
34983;BME280;21187;50.976;13.720;2023-03-22T07:02:46;97865.00;;;12.85;53.73
34983;BME280;21187;50.976;13.720;2023-03-22T07:08:04;97863.50;;;12.91;53.79
34983;BME280;21187;50.976;13.720;2023-03-22T07:13:10;97866.72;;;13.00;53.62
34983;BME280;21187;50.976;13.720;2023-03-22T07:18:12;97865.25;;;13.10;53.38
34983;BME280;21187;50.976;13.720;2023-03-22T07:23:14;97869.97;;;13.17;53.22
34983;BME280;21187;50.976;13.720;2023-03-22T07:28:22;97865.41;;;13.28;53.03
34983;BME280;21187;50.976;13.720;2023-03-22T07:33:25;97867.06;;;13.36;52.96
34983;BME280;21187;50.976;13.720;2023-03-22T07:38:29;97860.13;;;13.42;53.09
34983;BME280;21187;50.976;13.720;2023-03-22T07:43:31;97864.03;;;13.48;52.49
34983;BME280;21187;50.976;13.720;2023-03-22T07:48:50;97858.38;;;13.68;52.41
34983;BME280;21187;50.976;13.720;2023-03-22T07:54:10;97855.91;;;14.04;51.49
34983;BME280;21187;50.976;13.720;2023-03-22T07:59:23;97866.97;;;14.40;51.04
34983;BME280;21187;50.976;13.720;2023-03-22T08:04:26;97860.09;;;14.68;50.25
34983;BME280;21187;50.976;13.720;2023-03-22T08:09:58;97861.72;;;15.02;49.42
34983;BME280;21187;50.976;13.720;2023-03-22T08:15:00;97865.25;;;15.24;48.79
34983;BME280;21187;50.976;13.720;2023-03-22T08:20:04;97858.66;;;15.54;47.66
34983;BME280;21187;50.976;13.720;2023-03-22T08:25:20;97853.94;;;15.79;47.55
34983;BME280;21187;50.976;13.720;2023-03-22T08:30:24;97861.78;;;15.92;45.70
34983;BME280;21187;50.976;13.720;2023-03-22T08:35:27;97860.19;;;16.09;44.83
34983;BME280;21187;50.976;13.720;2023-03-22T08:40:29;97852.34;;;16.14;43.71
34983;BME280;21187;50.976;13.720;2023-03-22T08:45:34;97851.50;;;16.39;44.40
34983;BME280;21187;50.976;13.720;2023-03-22T08:50:43;97862.34;;;16.57;43.03
34983;BME280;21187;50.976;13.720;2023-03-22T08:55:54;97855.28;;;16.60;42.25
34983;BME280;21187;50.976;13.720;2023-03-22T09:01:17;97854.47;;;16.70;42.01
34983;BME280;21187;50.976;13.720;2023-03-22T09:06:29;97850.50;;;16.86;42.06
34983;BME280;21187;50.976;13.720;2023-03-22T09:11:31;97852.69;;;17.16;42.34
34983;BME280;21187;50.976;13.720;2023-03-22T09:16:33;97849.03;;;17.30;41.78
34983;BME280;21187;50.976;13.720;2023-03-22T09:21:36;97843.19;;;17.32;40.80
34983;BME280;21187;50.976;13.720;2023-03-22T09:26:48;97837.66;;;17.35;41.11
34983;BME280;21187;50.976;13.720;2023-03-22T09:31:52;97844.28;;;17.38;40.87
34983;BME280;21187;50.976;13.720;2023-03-22T09:36:59;97826.56;;;17.57;40.40
34983;BME280;21187;50.976;13.720;2023-03-22T09:47:31;97797.47;;;17.70;39.96
34983;BME280;21187;50.976;13.720;2023-03-22T09:52:46;97801.63;;;17.86;39.47
34983;BME280;21187;50.976;13.720;2023-03-22T09:58:10;97794.78;;;18.05;40.04
34983;BME280;21187;50.976;13.720;2023-03-22T10:09:11;97784.34;;;18.58;38.99
34983;BME280;21187;50.976;13.720;2023-03-22T10:19:32;97778.31;;;18.70;37.80
34983;BME280;21187;50.976;13.720;2023-03-22T10:24:38;97769.44;;;18.90;37.61
34983;BME280;21187;50.976;13.720;2023-03-22T10:29:46;97763.41;;;19.22;37.38
34983;BME280;21187;50.976;13.720;2023-03-22T10:34:51;97775.75;;;19.34;36.91
34983;BME280;21187;50.976;13.720;2023-03-22T10:39:54;97756.97;;;19.33;36.85
34983;BME280;21187;50.976;13.720;2023-03-22T10:45:03;97741.63;;;19.35;36.38
34983;BME280;21187;50.976;13.720;2023-03-22T10:50:20;97734.09;;;19.39;36.42
34983;BME280;21187;50.976;13.720;2023-03-22T10:55:23;97727.50;;;19.57;36.70
34983;BME280;21187;50.976;13.720;2023-03-22T11:00:26;97736.41;;;19.85;36.15
34983;BME280;21187;50.976;13.720;2023-03-22T11:05:29;97737.25;;;20.22;35.58
34983;BME280;21187;50.976;13.720;2023-03-22T11:10:31;97726.91;;;20.46;35.75
34983;BME280;21187;50.976;13.720;2023-03-22T11:15:54;97726.72;;;20.53;34.03
34983;BME280;21187;50.976;13.720;2023-03-22T11:21:08;97712.66;;;20.15;33.87
34983;BME280;21187;50.976;13.720;2023-03-22T11:26:13;97705.78;;;20.23;35.10
34983;BME280;21187;50.976;13.720;2023-03-22T11:31:16;97696.22;;;20.31;34.58
34983;BME280;21187;50.976;13.720;2023-03-22T11:36:19;97687.47;;;20.53;35.00
34983;BME280;21187;50.976;13.720;2023-03-22T11:41:27;97663.47;;;20.53;34.57
34983;BME280;21187;50.976;13.720;2023-03-22T11:46:30;97675.25;;;20.54;34.59
34983;BME280;21187;50.976;13.720;2023-03-22T11:51:37;97664.75;;;20.65;33.81
34983;BME280;21187;50.976;13.720;2023-03-22T11:56:45;97660.63;;;20.40;33.90
34983;BME280;21187;50.976;13.720;2023-03-22T12:02:47;97646.91;;;20.40;34.05
34983;BME280;21187;50.976;13.720;2023-03-22T12:07:42;97647.75;;;20.54;34.37
34983;BME280;21187;50.976;13.720;2023-03-22T12:12:50;97644.56;;;20.72;34.49
34983;BME280;21187;50.976;13.720;2023-03-22T12:17:59;97627.47;;;20.97;33.96
34983;BME280;21187;50.976;13.720;2023-03-22T12:23:19;97628.28;;;21.10;33.79
34983;BME280;21187;50.976;13.720;2023-03-22T12:28:27;97622.47;;;21.21;33.24
34983;BME280;21187;50.976;13.720;2023-03-22T12:33:47;97619.88;;;21.01;33.00
34983;BME280;21187;50.976;13.720;2023-03-22T12:38:54;97622.00;;;21.10;32.47
34983;BME280;21187;50.976;13.720;2023-03-22T12:44:02;97620.16;;;21.20;32.53
34983;BME280;21187;50.976;13.720;2023-03-22T12:49:42;97605.66;;;21.32;32.15
34983;BME280;21187;50.976;13.720;2023-03-22T12:54:46;97607.81;;;21.11;31.99
34983;BME280;21187;50.976;13.720;2023-03-22T12:59:51;97597.34;;;20.90;31.35
34983;BME280;21187;50.976;13.720;2023-03-22T13:04:57;97600.47;;;20.92;31.53
34983;BME280;21187;50.976;13.720;2023-03-22T13:10:00;97600.75;;;21.10;31.00
34983;BME280;21187;50.976;13.720;2023-03-22T13:15:32;97595.84;;;21.18;30.86
34983;BME280;21187;50.976;13.720;2023-03-22T13:21:15;97587.22;;;21.16;30.94
34983;BME280;21187;50.976;13.720;2023-03-22T13:26:19;97592.28;;;21.18;30.80
34983;BME280;21187;50.976;13.720;2023-03-22T13:31:47;97584.38;;;21.20;30.28
34983;BME280;21187;50.976;13.720;2023-03-22T13:36:54;97582.19;;;20.98;29.83
34983;BME280;21187;50.976;13.720;2023-03-22T13:42:21;97569.44;;;20.75;30.84
34983;BME280;21187;50.976;13.720;2023-03-22T13:47:34;97563.16;;;20.74;30.38
34983;BME280;21187;50.976;13.720;2023-03-22T13:52:52;97557.56;;;20.78;30.95
34983;BME280;21187;50.976;13.720;2023-03-22T13:57:58;97544.81;;;20.68;30.78
34983;BME280;21187;50.976;13.720;2023-03-22T14:03:25;97542.50;;;20.66;31.12
34983;BME280;21187;50.976;13.720;2023-03-22T14:08:27;97537.78;;;20.67;31.44
34983;BME280;21187;50.976;13.720;2023-03-22T14:18:39;97534.13;;;20.40;32.16
34983;BME280;21187;50.976;13.720;2023-03-22T14:23:48;97533.25;;;20.27;31.98
34983;BME280;21187;50.976;13.720;2023-03-22T14:28:50;97531.38;;;20.24;32.05
34983;BME280;21187;50.976;13.720;2023-03-22T14:33:54;97520.06;;;20.22;32.38
34983;BME280;21187;50.976;13.720;2023-03-22T14:38:55;97529.84;;;20.23;32.65
34983;BME280;21187;50.976;13.720;2023-03-22T14:43:59;97532.41;;;20.14;32.59
34983;BME280;21187;50.976;13.720;2023-03-22T14:49:01;97533.44;;;20.03;32.52
34983;BME280;21187;50.976;13.720;2023-03-22T14:54:05;97533.28;;;20.10;32.87
34983;BME280;21187;50.976;13.720;2023-03-22T14:59:19;97524.66;;;20.41;32.82
34983;BME280;21187;50.976;13.720;2023-03-22T15:04:21;97531.84;;;20.68;32.49
34983;BME280;21187;50.976;13.720;2023-03-22T15:09:22;97523.38;;;20.92;32.22
34983;BME280;21187;50.976;13.720;2023-03-22T15:14:24;97519.91;;;21.04;32.08
34983;BME280;21187;50.976;13.720;2023-03-22T15:19:32;97511.53;;;21.08;31.98
34983;BME280;21187;50.976;13.720;2023-03-22T15:24:37;97510.34;;;21.09;31.52
34983;BME280;21187;50.976;13.720;2023-03-22T15:29:42;97504.78;;;20.96;31.19
34983;BME280;21187;50.976;13.720;2023-03-22T15:34:54;97501.41;;;20.75;30.98
34983;BME280;21187;50.976;13.720;2023-03-22T15:39:56;97507.69;;;20.59;31.12
34983;BME280;21187;50.976;13.720;2023-03-22T15:45:17;97509.44;;;20.53;30.85
34983;BME280;21187;50.976;13.720;2023-03-22T15:50:22;97503.94;;;20.53;30.85
34983;BME280;21187;50.976;13.720;2023-03-22T15:55:31;97504.22;;;20.42;31.15
34983;BME280;21187;50.976;13.720;2023-03-22T16:00:34;97514.53;;;20.55;31.28
34983;BME280;21187;50.976;13.720;2023-03-22T16:05:42;97508.88;;;20.45;31.13
34983;BME280;21187;50.976;13.720;2023-03-22T16:10:44;97514.72;;;20.31;31.27
34983;BME280;21187;50.976;13.720;2023-03-22T16:15:45;97516.28;;;20.16;31.34
34983;BME280;21187;50.976;13.720;2023-03-22T16:20:48;97526.31;;;20.06;31.28
34983;BME280;21187;50.976;13.720;2023-03-22T16:25:49;97527.44;;;20.08;31.41
34983;BME280;21187;50.976;13.720;2023-03-22T16:30:50;97530.53;;;20.10;31.72
34983;BME280;21187;50.976;13.720;2023-03-22T16:35:51;97538.94;;;20.03;31.78
34983;BME280;21187;50.976;13.720;2023-03-22T16:40:52;97531.91;;;20.02;32.00
34983;BME280;21187;50.976;13.720;2023-03-22T16:45:53;97538.25;;;19.99;32.23
34983;BME280;21187;50.976;13.720;2023-03-22T16:50:53;97540.28;;;19.78;32.69
34983;BME280;21187;50.976;13.720;2023-03-22T16:55:54;97542.97;;;19.62;33.05
34983;BME280;21187;50.976;13.720;2023-03-22T17:00:55;97542.59;;;19.43;33.57
34983;BME280;21187;50.976;13.720;2023-03-22T17:05:56;97543.03;;;19.22;33.85
34983;BME280;21187;50.976;13.720;2023-03-22T17:10:58;97548.81;;;19.07;33.90
34983;BME280;21187;50.976;13.720;2023-03-22T17:15:58;97549.31;;;18.78;34.14
34983;BME280;21187;50.976;13.720;2023-03-22T17:20:59;97553.50;;;18.63;34.44
34983;BME280;21187;50.976;13.720;2023-03-22T17:26:00;97552.31;;;18.40;34.12
34983;BME280;21187;50.976;13.720;2023-03-22T17:31:01;97552.31;;;18.17;33.41
34983;BME280;21187;50.976;13.720;2023-03-22T17:36:03;97556.16;;;17.95;33.47
34983;BME280;21187;50.976;13.720;2023-03-22T17:41:03;97573.69;;;17.71;33.37
34983;BME280;21187;50.976;13.720;2023-03-22T17:46:05;97563.72;;;17.57;33.37
34983;BME280;21187;50.976;13.720;2023-03-22T17:51:06;97573.94;;;17.53;33.44
34983;BME280;21187;50.976;13.720;2023-03-22T17:56:07;97591.91;;;17.54;33.30
34983;BME280;21187;50.976;13.720;2023-03-22T18:01:11;97597.59;;;17.36;33.83
34983;BME280;21187;50.976;13.720;2023-03-22T18:06:12;97607.91;;;17.21;34.04
34983;BME280;21187;50.976;13.720;2023-03-22T18:11:13;97601.72;;;17.17;34.32
34983;BME280;21187;50.976;13.720;2023-03-22T18:16:14;97606.44;;;17.12;34.22
34983;BME280;21187;50.976;13.720;2023-03-22T18:21:15;97611.22;;;17.05;34.55
34983;BME280;21187;50.976;13.720;2023-03-22T18:26:16;97609.72;;;17.00;34.69
34983;BME280;21187;50.976;13.720;2023-03-22T18:31:17;97630.03;;;16.99;34.71
34983;BME280;21187;50.976;13.720;2023-03-22T18:36:18;97629.31;;;16.88;35.01
34983;BME280;21187;50.976;13.720;2023-03-22T18:41:19;97636.06;;;16.76;35.21
34983;BME280;21187;50.976;13.720;2023-03-22T18:46:20;97632.38;;;16.52;35.85
34983;BME280;21187;50.976;13.720;2023-03-22T18:51:21;97636.03;;;16.34;36.18
34983;BME280;21187;50.976;13.720;2023-03-22T18:56:22;97633.72;;;16.29;36.33
34983;BME280;21187;50.976;13.720;2023-03-22T19:01:22;97644.69;;;16.22;36.68
34983;BME280;21187;50.976;13.720;2023-03-22T19:06:23;97644.75;;;16.07;37.10
34983;BME280;21187;50.976;13.720;2023-03-22T19:11:25;97645.63;;;15.97;37.24
34983;BME280;21187;50.976;13.720;2023-03-22T19:16:25;97651.09;;;15.93;37.66
34983;BME280;21187;50.976;13.720;2023-03-22T19:21:26;97645.22;;;15.95;37.59
34983;BME280;21187;50.976;13.720;2023-03-22T19:26:27;97637.84;;;15.92;37.72
34983;BME280;21187;50.976;13.720;2023-03-22T19:31:28;97642.97;;;15.83;37.84
34983;BME280;21187;50.976;13.720;2023-03-22T19:36:30;97642.19;;;15.78;37.88
34983;BME280;21187;50.976;13.720;2023-03-22T19:41:31;97630.47;;;15.74;38.30
34983;BME280;21187;50.976;13.720;2023-03-22T19:46:32;97635.53;;;15.79;37.95
34983;BME280;21187;50.976;13.720;2023-03-22T19:51:33;97629.31;;;15.83;38.07
34983;BME280;21187;50.976;13.720;2023-03-22T19:56:33;97633.19;;;15.85;38.09
34983;BME280;21187;50.976;13.720;2023-03-22T20:01:35;97635.47;;;15.94;37.88
34983;BME280;21187;50.976;13.720;2023-03-22T20:06:36;97642.56;;;15.88;38.12
34983;BME280;21187;50.976;13.720;2023-03-22T20:11:37;97642.94;;;15.75;38.46
34983;BME280;21187;50.976;13.720;2023-03-22T20:16:38;97633.19;;;15.74;38.49
34983;BME280;21187;50.976;13.720;2023-03-22T20:21:38;97638.66;;;15.74;38.52
34983;BME280;21187;50.976;13.720;2023-03-22T20:26:41;97626.22;;;15.73;38.24
34983;BME280;21187;50.976;13.720;2023-03-22T20:31:41;97636.38;;;15.69;38.34
34983;BME280;21187;50.976;13.720;2023-03-22T20:36:42;97629.75;;;15.67;38.43
34983;BME280;21187;50.976;13.720;2023-03-22T20:41:43;97625.06;;;15.71;38.25
34983;BME280;21187;50.976;13.720;2023-03-22T20:46:44;97622.31;;;15.67;38.30
34983;BME280;21187;50.976;13.720;2023-03-22T20:51:45;97615.38;;;15.55;38.75
34983;BME280;21187;50.976;13.720;2023-03-22T20:56:46;97616.16;;;15.48;38.88
34983;BME280;21187;50.976;13.720;2023-03-22T21:01:47;97613.44;;;15.45;38.92
34983;BME280;21187;50.976;13.720;2023-03-22T21:06:48;97611.50;;;15.45;39.05
34983;BME280;21187;50.976;13.720;2023-03-22T21:11:49;97608.38;;;15.43;39.07
34983;BME280;21187;50.976;13.720;2023-03-22T21:16:51;97612.28;;;15.42;38.94
34983;BME280;21187;50.976;13.720;2023-03-22T21:21:52;97595.50;;;15.47;38.97
34983;BME280;21187;50.976;13.720;2023-03-22T21:26:52;97602.88;;;15.54;38.80
34983;BME280;21187;50.976;13.720;2023-03-22T21:31:53;97598.94;;;15.62;38.74
34983;BME280;21187;50.976;13.720;2023-03-22T21:36:55;97600.44;;;15.74;38.39
34983;BME280;21187;50.976;13.720;2023-03-22T21:41:58;97602.78;;;15.76;38.67
34983;BME280;21187;50.976;13.720;2023-03-22T21:47:03;97610.19;;;15.83;38.67
34983;BME280;21187;50.976;13.720;2023-03-22T21:52:05;97616.00;;;15.88;38.53
34983;BME280;21187;50.976;13.720;2023-03-22T21:57:06;97616.03;;;15.77;38.96
34983;BME280;21187;50.976;13.720;2023-03-22T22:02:11;97612.19;;;15.68;39.06
34983;BME280;21187;50.976;13.720;2023-03-22T22:07:14;97587.22;;;15.69;38.89
34983;BME280;21187;50.976;13.720;2023-03-22T22:12:17;97582.13;;;15.71;39.13
34983;BME280;21187;50.976;13.720;2023-03-22T22:17:17;97584.13;;;15.67;39.27
34983;BME280;21187;50.976;13.720;2023-03-22T22:22:18;97568.16;;;15.62;39.63
34983;BME280;21187;50.976;13.720;2023-03-22T22:27:19;97558.03;;;15.59;39.70
34983;BME280;21187;50.976;13.720;2023-03-22T22:32:21;97556.47;;;15.61;39.55
34983;BME280;21187;50.976;13.720;2023-03-22T22:37:22;97552.19;;;15.57;39.81
34983;BME280;21187;50.976;13.720;2023-03-22T22:42:23;97542.47;;;15.52;39.87
34983;BME280;21187;50.976;13.720;2023-03-22T22:47:24;97546.75;;;15.53;40.02
34983;BME280;21187;50.976;13.720;2023-03-22T22:52:25;97548.34;;;15.51;39.98
34983;BME280;21187;50.976;13.720;2023-03-22T22:57:26;97544.47;;;15.44;40.04
34983;BME280;21187;50.976;13.720;2023-03-22T23:02:27;97546.78;;;15.50;40.44
34983;BME280;21187;50.976;13.720;2023-03-22T23:07:28;97547.19;;;15.44;41.04
34983;BME280;21187;50.976;13.720;2023-03-22T23:12:29;97539.81;;;15.34;41.58
34983;BME280;21187;50.976;13.720;2023-03-22T23:17:30;97542.97;;;15.25;41.89
34983;BME280;21187;50.976;13.720;2023-03-22T23:22:30;97529.72;;;15.27;42.08
34983;BME280;21187;50.976;13.720;2023-03-22T23:27:31;97520.69;;;15.41;42.01
34983;BME280;21187;50.976;13.720;2023-03-22T23:32:32;97526.13;;;15.45;41.91
34983;BME280;21187;50.976;13.720;2023-03-22T23:37:34;97513.28;;;15.45;42.09
34983;BME280;21187;50.976;13.720;2023-03-22T23:42:37;97508.59;;;15.42;42.35
34983;BME280;21187;50.976;13.720;2023-03-22T23:47:38;97513.28;;;15.45;42.22
34983;BME280;21187;50.976;13.720;2023-03-22T23:52:39;97500.00;;;15.47;41.77
34983;BME280;21187;50.976;13.720;2023-03-22T23:57:40;97503.91;;;15.46;41.99
